Time;durP1;ratioP1;P1;durP2;ratioP2;P2;SDS_P1;SDS_P2;PMS_P1;PMS_P2;Temp;Humidity;BMP_temperature;BMP_pressure;BME280_temperature;BME280_humidity;BME280_pressure;Samples;Min_cycle;Max_cycle;Signal;HPM_P1;HPM_P2
2023/07/04 00:02:22;;;;;;;3.07;1.77;;;;;;;14.14;93.26;100630.03;6248546;28;20243;-69
2023/07/04 00:05:48;;;;;;;1.73;1.40;;;;;;;14.06;93.79;100616.47;6257430;28;20673;-69
2023/07/04 00:09:08;;;;;;;3.50;2.07;;;;;;;14.05;94.56;100632.91;6246291;28;20699;-70
2023/07/04 00:12:31;;;;;;;3.80;1.73;;;;;;;14.15;94.86;100620.91;6233058;28;20235;-70
2023/07/04 00:15:56;;;;;;;3.47;1.53;;;;;;;14.20;95.29;100607.72;6247416;28;20254;-70
2023/07/04 00:19:17;;;;;;;2.67;2.23;;;;;;;14.18;95.16;100633.28;6248815;28;20314;-71
2023/07/04 00:22:40;;;;;;;1.43;1.27;;;;;;;14.14;94.98;100613.78;6262435;28;20585;-69
2023/07/04 00:26:01;;;;;;;1.57;1.47;;;;;;;14.08;95.24;100636.13;6250485;28;20333;-69
2023/07/04 00:29:22;;;;;;;2.00;1.53;;;;;;;14.07;95.06;100636.31;6246312;28;20231;-69
2023/07/04 00:32:44;;;;;;;1.83;1.17;;;;;;;14.05;94.90;100620.22;6247849;28;20251;-69
2023/07/04 00:36:07;;;;;;;2.33;1.57;;;;;;;14.06;94.85;100627.31;6252159;28;20227;-70
2023/07/04 00:39:28;;;;;;;2.60;1.60;;;;;;;14.04;94.80;100640.19;6230038;28;20664;-70
2023/07/04 00:42:51;;;;;;;2.20;1.47;;;;;;;14.05;94.81;100647.31;6244017;28;20798;-69
2023/07/04 00:46:14;;;;;;;3.40;2.03;;;;;;;14.05;94.93;100657.31;6256768;28;20236;-70
2023/07/04 00:49:42;;;;;;;3.63;2.07;;;;;;;14.04;95.38;100667.28;6252187;28;20310;-69
2023/07/04 00:53:07;;;;;;;2.93;1.30;;;;;;;14.11;95.11;100649.38;6241331;28;20318;-69
2023/07/04 00:56:31;;;;;;;1.67;1.47;;;;;;;14.00;95.22;100651.50;6234238;28;20227;-69
2023/07/04 00:59:58;;;;;;;1.60;1.50;;;;;;;13.92;95.11;100663.19;6249921;28;20309;-69
2023/07/04 01:03:20;;;;;;;4.53;1.73;;;;;;;13.91;95.59;100668.78;6239983;28;20235;-68
2023/07/04 01:06:50;;;;;;;2.47;1.43;;;;;;;13.83;95.53;100668.75;6242527;28;20628;-70
2023/07/04 01:10:16;;;;;;;1.73;1.10;;;;;;;13.80;95.35;100666.34;6247236;28;20251;-69
2023/07/04 01:13:43;;;;;;;1.97;1.50;;;;;;;13.95;95.37;100681.00;6254598;28;20243;-70
2023/07/04 01:17:06;;;;;;;1.03;0.90;;;;;;;13.85;95.39;100664.84;6237327;28;20220;-70
2023/07/04 01:20:29;;;;;;;4.80;1.57;;;;;;;13.87;95.02;100667.41;6236449;28;20223;-69
2023/07/04 01:24:03;;;;;;;4.60;1.43;;;;;;;13.98;94.61;100664.38;6228694;28;20231;-70
2023/07/04 01:27:28;;;;;;;3.50;1.23;;;;;;;13.82;94.61;100662.47;6247924;28;20781;-68
2023/07/04 01:30:49;;;;;;;2.00;1.10;;;;;;;13.85;94.35;100672.13;6210840;28;20235;-69
2023/07/04 01:34:13;;;;;;;3.20;1.17;;;;;;;13.77;94.30;100682.94;6244489;28;20240;-69
2023/07/04 01:37:35;;;;;;;2.10;1.37;;;;;;;13.77;94.26;100664.78;6257576;28;20621;-69
2023/07/04 01:40:58;;;;;;;1.13;1.10;;;;;;;13.86;94.06;100673.81;6223374;28;20640;-69
2023/07/04 01:44:24;;;;;;;1.50;1.40;;;;;;;13.79;94.08;100679.03;6248491;28;20235;-69
2023/07/04 01:47:45;;;;;;;7.13;1.67;;;;;;;13.79;94.40;100679.03;6260251;28;20231;-69
2023/07/04 01:51:06;;;;;;;4.60;2.13;;;;;;;13.75;94.21;100693.91;6256119;28;20266;-69
2023/07/04 01:54:27;;;;;;;3.90;2.13;;;;;;;13.80;93.92;100685.31;6240212;28;20231;-69
2023/07/04 01:57:48;;;;;;;1.63;1.53;;;;;;;13.73;93.96;100674.25;6255669;28;20223;-69
2023/07/04 02:01:10;;;;;;;2.03;1.60;;;;;;;13.68;93.95;100697.44;6250902;28;20236;-70
2023/07/04 02:04:31;;;;;;;2.70;1.73;;;;;;;13.68;94.13;100692.88;6229635;28;20215;-70
2023/07/04 02:07:53;;;;;;;2.43;1.33;;;;;;;13.57;94.03;100707.53;6243971;28;20366;-70
2023/07/04 02:11:14;;;;;;;6.50;2.40;;;;;;;13.56;94.32;100711.25;6256591;28;20262;-69
2023/07/04 02:14:37;;;;;;;2.50;1.20;;;;;;;13.48;94.30;100715.75;6242629;28;20235;-69
2023/07/04 02:17:59;;;;;;;2.90;1.53;;;;;;;13.59;94.48;100701.97;6242045;28;20247;-69
2023/07/04 02:21:20;;;;;;;2.30;1.77;;;;;;;13.57;94.68;100693.13;6252010;28;20232;-70
2023/07/04 02:24:42;;;;;;;1.17;0.93;;;;;;;13.51;94.63;100697.34;6243030;28;20375;-69
2023/07/04 02:28:05;;;;;;;2.10;1.73;;;;;;;13.59;94.82;100707.38;6256051;28;20256;-69
2023/07/04 02:31:28;;;;;;;3.03;1.73;;;;;;;13.48;94.67;100713.91;6246430;28;20228;-68
2023/07/04 02:34:53;;;;;;;2.50;1.77;;;;;;;13.42;94.88;100708.25;6216370;28;20568;-69
2023/07/04 02:38:14;;;;;;;2.33;1.83;;;;;;;13.39;94.95;100706.72;6239522;28;20247;-70
2023/07/04 02:41:35;;;;;;;5.83;2.20;;;;;;;13.42;95.40;100710.97;6233475;28;20232;-69
2023/07/04 02:44:57;;;;;;;3.73;1.90;;;;;;;13.32;95.13;100710.22;6229632;28;20320;-69
2023/07/04 02:48:19;;;;;;;1.47;1.33;;;;;;;13.36;95.12;100717.88;6239660;28;20262;-69
2023/07/04 02:51:46;;;;;;;4.90;1.50;;;;;;;13.34;95.57;100716.34;6261908;28;20243;-69
2023/07/04 02:55:07;;;;;;;2.47;1.63;;;;;;;13.32;95.45;100705.66;6235539;28;20259;-70
2023/07/04 02:58:30;;;;;;;5.70;1.80;;;;;;;13.34;95.64;100729.88;6243006;28;20231;-69
2023/07/04 03:01:53;;;;;;;1.93;1.77;;;;;;;13.23;95.92;100727.41;6256327;28;20220;-68
2023/07/04 03:05:15;;;;;;;2.80;2.37;;;;;;;13.33;96.23;100723.59;6253884;28;20235;-70
2023/07/04 03:08:38;;;;;;;6.13;2.10;;;;;;;13.33;96.62;100720.06;6242859;28;20237;-68
2023/07/04 03:11:59;;;;;;;5.50;2.50;;;;;;;13.40;96.64;100723.81;6218968;28;20235;-69
2023/07/04 03:15:20;;;;;;;5.03;3.10;;;;;;;13.35;97.01;100718.88;6209865;28;20250;-69
2023/07/04 03:18:45;;;;;;;3.20;1.93;;;;;;;13.49;97.09;100733.72;6241175;28;20246;-70
2023/07/04 03:22:06;;;;;;;2.30;2.10;;;;;;;13.40;96.90;100731.94;6250972;28;20235;-69
2023/07/04 03:25:30;;;;;;;3.20;2.63;;;;;;;13.57;97.44;100722.94;6239163;28;20235;-69
2023/07/04 03:28:52;;;;;;;3.90;2.87;;;;;;;13.47;97.39;100733.03;6250018;28;20235;-70
2023/07/04 03:32:14;;;;;;;3.10;2.10;;;;;;;13.44;97.54;100749.56;6233423;28;20232;-69
2023/07/04 03:35:38;;;;;;;2.40;1.73;;;;;;;13.52;97.48;100742.38;6248825;28;20250;-70
2023/07/04 03:38:58;;;;;;;5.93;2.40;;;;;;;13.47;97.76;100735.72;6245753;28;20243;-70
2023/07/04 03:42:24;;;;;;;2.97;1.90;;;;;;;13.54;98.14;100736.78;6263114;28;23736;-70
2023/07/04 03:45:45;;;;;;;3.50;2.17;;;;;;;13.47;98.23;100741.16;6251907;28;20227;-68
2023/07/04 03:49:06;;;;;;;2.90;2.43;;;;;;;13.56;98.44;100738.34;6243752;28;20235;-69
2023/07/04 03:52:27;;;;;;;3.87;2.30;;;;;;;13.34;98.03;100733.44;6245623;28;20225;-68
2023/07/04 03:55:49;;;;;;;4.30;2.67;;;;;;;13.39;98.90;100741.91;6251021;28;21274;-69
2023/07/04 03:59:12;;;;;;;6.63;2.57;;;;;;;13.49;98.60;100750.81;6229479;28;20224;-70
2023/07/04 04:02:33;;;;;;;8.23;2.70;;;;;;;13.44;98.47;100744.16;6258169;28;20255;-69
2023/07/04 04:05:54;;;;;;;4.43;3.10;;;;;;;13.60;98.58;100755.13;6252811;28;20236;-69
2023/07/04 04:09:15;;;;;;;8.00;2.67;;;;;;;13.49;98.93;100747.25;6247636;28;20249;-69
2023/07/04 04:12:36;;;;;;;4.37;3.43;;;;;;;13.50;98.75;100751.66;6265865;28;20235;-69
2023/07/04 04:15:59;;;;;;;3.50;2.13;;;;;;;13.57;98.56;100764.44;6249456;28;20231;-69
2023/07/04 04:19:19;;;;;;;5.40;3.23;;;;;;;13.56;98.69;100760.00;6232438;28;20723;-69
2023/07/04 04:22:44;;;;;;;7.00;3.10;;;;;;;13.81;98.59;100763.72;6260132;28;20235;-69
2023/07/04 04:26:06;;;;;;;5.63;3.67;;;;;;;13.75;98.06;100764.34;6252777;28;20219;-69
2023/07/04 04:29:28;;;;;;;6.67;3.67;;;;;;;13.77;97.71;100762.34;6234530;28;20552;-69
2023/07/04 04:32:50;;;;;;;7.93;3.00;;;;;;;13.92;97.81;100768.03;6262559;28;20227;-70
2023/07/04 04:36:11;;;;;;;4.73;2.57;;;;;;;13.98;97.32;100772.78;6260602;28;20545;-69
2023/07/04 04:39:32;;;;;;;4.30;1.90;;;;;;;13.97;96.86;100769.25;6253815;28;20235;-69
2023/07/04 04:42:53;;;;;;;4.03;2.03;;;;;;;13.98;96.48;100768.22;6250477;28;20236;-70
2023/07/04 04:46:14;;;;;;;4.07;2.40;;;;;;;14.05;96.25;100763.03;6243673;28;20805;-68
2023/07/04 04:49:36;;;;;;;3.43;2.50;;;;;;;14.23;96.04;100761.94;6241025;28;20314;-69
2023/07/04 04:52:57;;;;;;;3.63;1.70;;;;;;;14.20;95.20;100762.28;6249413;28;20250;-70
2023/07/04 04:56:18;;;;;;;2.90;2.03;;;;;;;14.16;94.73;100769.00;6197049;28;20264;-69
2023/07/04 04:59:39;;;;;;;2.27;2.07;;;;;;;14.33;94.35;100786.25;6237966;28;20239;-68
2023/07/04 05:03:00;;;;;;;3.20;2.37;;;;;;;14.40;93.93;100784.59;6257375;28;20593;-68
2023/07/04 05:06:24;;;;;;;3.37;2.20;;;;;;;14.52;93.53;100775.13;6247051;28;20231;-69
2023/07/04 05:09:45;;;;;;;7.40;3.30;;;;;;;14.66;92.68;100781.81;6247406;28;21028;-69
2023/07/04 05:13:12;;;;;;;4.03;2.80;;;;;;;14.70;92.32;100781.31;6261689;28;20236;-70
2023/07/04 05:16:33;;;;;;;3.03;1.80;;;;;;;14.75;91.85;100789.78;6241148;28;20236;-69
2023/07/04 05:19:54;;;;;;;3.23;1.80;;;;;;;14.74;91.36;100796.25;6241007;28;20239;-69
2023/07/04 05:23:16;;;;;;;4.07;2.37;;;;;;;14.83;91.16;100805.28;6252218;28;20319;-67
2023/07/04 05:26:37;;;;;;;2.27;1.60;;;;;;;14.74;90.88;100795.41;6247246;28;20571;-67
2023/07/04 05:29:58;;;;;;;4.37;2.47;;;;;;;14.92;90.26;100791.53;6232970;28;20565;-68
2023/07/04 05:33:19;;;;;;;4.87;2.10;;;;;;;15.04;90.17;100790.22;6240644;28;20272;-69
2023/07/04 05:36:41;;;;;;;2.63;2.37;;;;;;;14.95;90.02;100802.09;6242620;28;20322;-69
2023/07/04 05:40:03;;;;;;;4.50;2.30;;;;;;;14.83;90.01;100797.94;6215297;28;20649;-69
2023/07/04 05:43:24;;;;;;;5.07;2.33;;;;;;;15.08;90.48;100790.75;6240933;28;20597;-69
2023/07/04 05:46:45;;;;;;;5.07;2.57;;;;;;;15.16;89.74;100798.91;6251626;28;20244;-69
2023/07/04 05:50:07;;;;;;;5.07;2.30;;;;;;;15.26;89.76;100810.44;6247095;28;20348;-68
2023/07/04 05:53:30;;;;;;;4.23;2.20;;;;;;;15.17;89.63;100803.28;6248472;28;20268;-69
2023/07/04 05:56:55;;;;;;;6.40;2.53;;;;;;;15.25;89.70;100813.34;6232066;28;20256;-69
2023/07/04 06:00:16;;;;;;;3.67;2.87;;;;;;;15.46;88.81;100819.16;6257637;28;20310;-68
2023/07/04 06:03:37;;;;;;;6.83;3.43;;;;;;;15.28;88.80;100816.56;6260249;28;20232;-69
2023/07/04 06:06:59;;;;;;;9.23;2.67;;;;;;;15.49;88.07;100824.25;6250973;28;20227;-69
2023/07/04 06:10:20;;;;;;;6.53;2.73;;;;;;;15.59;87.73;100814.06;6251056;28;20219;-69
2023/07/04 06:13:42;;;;;;;5.60;2.33;;;;;;;15.46;87.12;100809.13;6261268;28;20231;-70
2023/07/04 06:17:04;;;;;;;4.67;2.83;;;;;;;15.67;86.43;100827.63;6246040;28;20227;-68
2023/07/04 06:20:25;;;;;;;3.53;2.37;;;;;;;15.80;85.60;100825.28;6239274;28;20227;-68
2023/07/04 06:23:46;;;;;;;6.73;2.37;;;;;;;15.71;85.61;100831.72;6256879;28;20618;-68
2023/07/04 06:27:07;;;;;;;3.47;2.13;;;;;;;15.87;85.49;100835.28;6256951;28;20240;-69
2023/07/04 06:30:34;;;;;;;5.00;2.57;;;;;;;15.63;84.45;100843.44;6247992;28;20235;-68
2023/07/04 06:33:56;;;;;;;3.13;1.80;;;;;;;16.04;84.63;100830.69;6250682;28;20318;-68
2023/07/04 06:37:17;;;;;;;4.30;2.37;;;;;;;16.23;83.52;100832.19;6253424;28;20228;-69
2023/07/04 06:40:39;;;;;;;3.93;1.80;;;;;;;16.44;82.99;100840.59;6259130;28;20247;-69
2023/07/04 06:43:59;;;;;;;4.10;3.00;;;;;;;16.31;82.50;100837.59;6253871;28;20232;-68
2023/07/04 06:47:22;;;;;;;3.20;2.30;;;;;;;16.42;81.51;100843.50;6258061;28;20231;-68
2023/07/04 06:50:45;;;;;;;7.50;3.37;;;;;;;16.73;80.57;100851.75;6262690;28;20608;-69
2023/07/04 06:54:06;;;;;;;4.73;1.70;;;;;;;16.70;79.74;100855.72;6251414;28;20235;-69
2023/07/04 06:57:27;;;;;;;2.67;1.50;;;;;;;16.95;79.34;100855.59;6261302;28;20235;-69
2023/07/04 07:00:55;;;;;;;7.17;2.37;;;;;;;16.82;79.27;100860.75;6258054;28;21439;-69
2023/07/04 07:04:17;;;;;;;2.13;1.80;;;;;;;16.75;78.98;100857.91;6244202;28;20223;-68
2023/07/04 07:07:39;;;;;;;2.60;1.63;;;;;;;16.79;79.06;100861.97;6266617;28;20224;-69
2023/07/04 07:11:01;;;;;;;2.10;1.90;;;;;;;16.67;78.68;100880.53;6260655;28;21006;-68
2023/07/04 07:14:21;;;;;;;4.10;1.77;;;;;;;16.79;78.65;100876.41;6245819;28;20486;-69
2023/07/04 07:17:42;;;;;;;4.93;2.40;;;;;;;17.10;78.23;100886.50;6266242;28;20755;-68
2023/07/04 07:21:06;;;;;;;3.97;2.17;;;;;;;17.04;78.09;100893.53;6248304;28;20227;-69
2023/07/04 07:24:28;;;;;;;3.37;2.00;;;;;;;16.85;78.32;100893.09;6250620;28;20235;-69
2023/07/04 07:27:49;;;;;;;2.43;2.20;;;;;;;16.91;78.71;100895.97;6262429;28;20318;-69
2023/07/04 07:31:12;;;;;;;3.17;2.60;;;;;;;16.69;79.11;100897.56;6263866;28;20597;-68
2023/07/04 07:34:33;;;;;;;3.17;1.63;;;;;;;16.95;79.01;100905.47;6251737;28;20231;-69
2023/07/04 07:37:55;;;;;;;6.73;2.60;;;;;;;16.91;78.71;100906.00;6265747;28;20315;-69
2023/07/04 07:41:17;;;;;;;6.30;2.23;;;;;;;16.70;78.69;100926.50;6262758;28;20219;-69
2023/07/04 07:44:38;;;;;;;8.50;2.87;;;;;;;16.89;78.47;100900.72;6245287;28;20243;-69
2023/07/04 07:47:59;;;;;;;3.47;2.30;;;;;;;16.64;78.40;100907.28;6265108;28;20224;-68
2023/07/04 07:51:20;;;;;;;2.07;1.83;;;;;;;16.95;78.61;100905.47;6246217;28;20235;-69
2023/07/04 07:54:42;;;;;;;2.47;1.97;;;;;;;17.21;77.80;100916.91;6251290;28;20227;-69
2023/07/04 07:58:03;;;;;;;2.03;1.60;;;;;;;17.44;77.25;100903.31;6263011;28;20228;-68
2023/07/04 08:01:26;;;;;;;4.33;2.13;;;;;;;16.96;76.65;100925.41;6242711;28;20363;-69
2023/07/04 08:04:46;;;;;;;2.30;2.07;;;;;;;17.02;75.76;100913.78;6250046;28;20324;-69
2023/07/04 08:08:08;;;;;;;3.40;1.80;;;;;;;17.37;75.33;100919.56;6257514;28;20231;-68
2023/07/04 08:11:31;;;;;;;5.95;2.15;;;;;;;17.97;74.07;100916.97;6261952;28;20224;-68
2023/07/04 08:14:52;;;;;;;2.93;2.13;;;;;;;17.72;72.29;100911.88;6245066;28;20697;-69
2023/07/04 08:18:13;;;;;;;5.22;2.08;;;;;;;17.62;71.63;100917.56;6259912;28;20462;-69
2023/07/04 08:21:34;;;;;;;4.90;2.33;;;;;;;17.10;72.39;100927.38;6251836;28;20231;-68
2023/07/04 08:24:54;;;;;;;5.23;2.60;;;;;;;17.13;72.29;100932.44;6235382;28;20796;-68
2023/07/04 08:28:18;;;;;;;4.60;1.83;;;;;;;17.34;71.80;100917.19;6262314;28;20843;-68
2023/07/04 08:31:39;;;;;;;3.45;1.77;;;;;;;17.78;70.82;100927.50;6262896;28;20242;-69
2023/07/04 08:35:00;;;;;;;2.92;2.08;;;;;;;17.82;70.53;100923.38;6251660;28;22428;-68
2023/07/04 08:38:20;;;;;;;3.10;1.42;;;;;;;17.63;69.94;100945.69;6265014;28;20502;-68
2023/07/04 08:41:48;;;;;;;3.08;1.52;;;;;;;17.67;69.98;100931.50;6259492;28;20681;-68
2023/07/04 08:45:21;;;;;;;1.40;1.27;;;;;;;17.31;70.36;100949.41;6233880;28;20315;-67
2023/07/04 08:48:46;;;;;;;2.73;1.37;;;;;;;18.14;70.03;100937.63;6258627;28;20255;-68
2023/07/04 08:52:11;;;;;;;2.83;1.80;;;;;;;18.16;69.12;100931.97;6258486;28;20314;-69
2023/07/04 08:55:35;;;;;;;3.50;1.98;;;;;;;18.21;68.87;100924.09;6256518;28;20648;-68
2023/07/04 08:59:13;;;;;;;2.13;1.55;;;;;;;17.92;68.72;100933.03;6256225;28;20321;-69
2023/07/04 09:03:00;;;;;;;3.45;1.70;;;;;;;18.17;68.30;100947.31;6247925;28;20232;-68
2023/07/04 09:06:31;;;;;;;3.78;1.70;;;;;;;18.57;68.02;100927.00;6253544;28;20227;-70
2023/07/04 09:09:59;;;;;;;7.20;2.53;;;;;;;18.42;67.61;100924.22;6235746;28;20617;-71
2023/07/04 09:13:26;;;;;;;2.20;1.85;;;;;;;18.03;68.57;100932.59;6254619;28;20223;-68
2023/07/04 09:16:50;;;;;;;12.10;1.50;;;;;;;17.86;69.13;100935.63;6242545;28;20231;-69
2023/07/04 09:20:13;;;;;;;2.25;1.45;;;;;;;18.19;68.53;100937.91;6227281;28;20224;-69
2023/07/04 09:23:34;;;;;;;2.78;1.25;;;;;;;17.81;68.77;100921.69;6244896;28;20311;-69
2023/07/04 09:26:57;;;;;;;2.53;1.67;;;;;;;17.93;68.50;100922.97;6229280;28;20289;-69
2023/07/04 09:30:19;;;;;;;2.00;1.83;;;;;;;18.12;67.27;100934.25;6243836;28;20234;-69
2023/07/04 09:33:41;;;;;;;3.13;1.67;;;;;;;17.63;68.73;100938.34;6249934;28;20232;-70
2023/07/04 09:37:10;;;;;;;3.10;1.08;;;;;;;17.60;71.30;100946.91;6210414;28;20233;-67
2023/07/04 09:40:43;;;;;;;2.80;1.33;;;;;;;17.41;73.25;100942.72;6239604;28;20228;-69
2023/07/04 09:44:16;;;;;;;1.58;1.10;;;;;;;17.40;74.36;100927.38;6242615;28;20219;-68
2023/07/04 09:47:43;;;;;;;2.28;1.10;;;;;;;17.45;73.13;100938.59;6260813;28;20245;-68
2023/07/04 09:51:17;;;;;;;2.63;1.73;;;;;;;18.32;71.33;100946.34;6254940;28;20235;-68
2023/07/04 09:54:41;;;;;;;4.65;1.90;;;;;;;18.26;70.92;100948.94;6233958;28;20235;-69
2023/07/04 09:58:19;;;;;;;4.32;1.40;;;;;;;18.16;69.39;100953.81;6262478;28;20676;-68
2023/07/04 10:01:41;;;;;;;1.40;1.30;;;;;;;17.82;68.84;100947.94;6258835;28;20330;-68
2023/07/04 10:05:02;;;;;;;2.65;1.80;;;;;;;18.29;68.73;100951.31;6245924;28;20232;-69
2023/07/04 10:08:23;;;;;;;1.27;1.17;;;;;;;18.53;68.33;100942.94;6253948;28;20335;-69
2023/07/04 10:11:47;;;;;;;2.28;1.73;;;;;;;18.73;65.39;100957.72;6242976;28;20310;-69
2023/07/04 10:15:09;;;;;;;1.88;1.33;;;;;;;18.70;64.86;100949.91;6246431;28;20235;-68
2023/07/04 10:18:31;;;;;;;2.83;1.20;;;;;;;18.78;64.48;100951.72;6247695;28;20228;-69
2023/07/04 10:21:54;;;;;;;3.15;2.60;;;;;;;18.66;64.58;100947.75;6251898;28;20421;-68
2023/07/04 10:25:17;;;;;;;2.30;1.67;;;;;;;18.97;63.87;100952.00;6245431;28;20239;-70
2023/07/04 10:28:41;;;;;;;2.05;1.15;;;;;;;19.26;61.14;100953.88;6265094;28;20228;-68
2023/07/04 10:32:07;;;;;;;3.60;1.27;;;;;;;19.82;59.87;100952.25;6225993;28;20228;-69
2023/07/04 10:35:31;;;;;;;1.30;1.08;;;;;;;19.51;60.43;100949.81;6241366;28;20239;-68
2023/07/04 10:38:57;;;;;;;6.22;1.40;;;;;;;19.26;57.89;100962.06;6254550;28;20247;-70
2023/07/04 10:42:26;;;;;;;4.13;1.77;;;;;;;19.09;56.04;100969.63;6255172;28;20625;-70
2023/07/04 10:45:49;;;;;;;1.48;1.00;;;;;;;19.47;55.52;100947.63;6253969;28;20234;-69
2023/07/04 10:49:16;;;;;;;2.00;1.00;;;;;;;20.41;53.95;100967.41;6249448;28;20720;-70
2023/07/04 10:52:38;;;;;;;2.67;1.17;;;;;;;20.00;54.55;100995.63;6252079;28;20227;-69
2023/07/04 10:56:04;;;;;;;8.00;1.52;;;;;;;19.96;54.51;100959.59;6223619;28;20231;-67
2023/07/04 10:59:31;;;;;;;0.95;0.80;;;;;;;19.57;53.94;100965.44;6246260;28;20610;-69
2023/07/04 11:02:57;;;;;;;3.20;1.17;;;;;;;19.45;54.34;100985.28;6268486;28;20244;-69
2023/07/04 11:06:24;;;;;;;9.68;1.20;;;;;;;19.75;54.19;100979.56;6255708;28;20247;-68
2023/07/04 11:09:47;;;;;;;1.88;1.02;;;;;;;20.08;53.89;100974.44;6254523;28;20325;-69
2023/07/04 11:13:08;;;;;;;5.47;1.50;;;;;;;19.65;54.07;100975.44;6267607;28;20232;-68
2023/07/04 11:16:32;;;;;;;2.67;1.40;;;;;;;20.39;53.32;100974.97;6254467;28;20224;-69
2023/07/04 11:19:57;;;;;;;4.07;1.05;;;;;;;20.01;53.35;100989.94;6243752;28;20247;-68
2023/07/04 11:23:20;;;;;;;1.33;1.02;;;;;;;20.12;52.76;100994.91;6254779;28;20247;-68
2023/07/04 11:26:49;;;;;;;1.85;0.98;;;;;;;20.15;52.82;100994.50;6246570;28;20223;-71
2023/07/04 11:30:33;;;;;;;1.80;1.08;;;;;;;20.36;53.00;101013.69;6250609;28;20227;-72
2023/07/04 11:34:06;;;;;;;1.27;0.93;;;;;;;21.34;52.85;101022.72;6246101;28;20235;-70
2023/07/04 11:37:32;;;;;;;0.85;0.80;;;;;;;21.52;50.29;101013.94;6240395;28;21540;-72
2023/07/04 11:40:54;;;;;;;0.45;0.45;;;;;;;21.11;51.03;101032.28;6251808;28;20688;-71
2023/07/04 11:44:22;;;;;;;1.33;0.68;;;;;;;20.85;52.22;101032.91;6239320;28;20243;-70
2023/07/04 11:47:48;;;;;;;0.57;0.50;;;;;;;19.82;54.26;101037.06;6261510;28;20688;-71
2023/07/04 11:51:12;;;;;;;1.10;0.70;;;;;;;19.54;54.62;101066.19;6256868;28;20231;-69
2023/07/04 11:54:35;;;;;;;0.38;0.38;;;;;;;19.81;53.80;101062.75;6241027;28;20239;-71
2023/07/04 11:58:17;;;;;;;2.60;0.70;;;;;;;19.01;55.08;101065.38;6252122;28;20334;-73
2023/07/04 12:02:06;;;;;;;10.40;1.30;;;;;;;18.34;57.41;101066.25;6251892;28;20240;-73
2023/07/04 12:05:33;;;;;;;1.85;0.73;;;;;;;18.38;58.05;101084.81;6237797;28;20244;-71
2023/07/04 12:08:56;;;;;;;0.65;0.60;;;;;;;18.36;58.56;101091.50;6251321;28;20235;-74
2023/07/04 12:12:22;;;;;;;2.30;0.95;;;;;;;18.60;57.25;101063.19;6250577;28;20232;-71
2023/07/04 12:15:49;;;;;;;0.70;0.70;;;;;;;19.88;55.80;101074.63;6247131;28;22375;-68
2023/07/04 12:19:15;;;;;;;1.08;0.80;;;;;;;19.74;54.31;101079.09;6241403;28;20244;-69
2023/07/04 12:22:37;;;;;;;0.93;0.63;;;;;;;20.32;53.79;101071.78;6261346;28;20577;-69
2023/07/04 12:26:00;;;;;;;1.95;0.88;;;;;;;19.78;53.26;101082.28;6237092;28;20585;-72
2023/07/04 12:29:22;;;;;;;1.45;0.65;;;;;;;19.55;53.79;101093.34;6255436;28;20223;-72
2023/07/04 12:32:43;;;;;;;1.15;1.05;;;;;;;19.38;54.02;101110.97;6264713;28;20240;-72
2023/07/04 12:36:09;;;;;;;0.80;0.80;;;;;;;19.71;52.85;101122.41;6228056;28;20283;-72
2023/07/04 12:39:30;;;;;;;0.75;0.55;;;;;;;19.01;54.06;101138.31;6246428;28;20239;-71
2023/07/04 12:42:53;;;;;;;0.85;0.63;;;;;;;18.97;55.45;101137.81;6260637;28;20610;-73
2023/07/04 12:46:19;;;;;;;1.52;0.85;;;;;;;18.60;57.00;101153.31;6252553;28;20223;-75
2023/07/04 12:49:41;;;;;;;0.52;0.52;;;;;;;18.18;59.21;101156.44;6253427;28;20334;-72
2023/07/04 12:53:02;;;;;;;1.55;0.60;;;;;;;17.98;60.45;101157.91;6262620;28;20227;-74
2023/07/04 12:56:24;;;;;;;1.50;1.20;;;;;;;17.69;61.51;101169.41;6261835;28;20243;-75
2023/07/04 12:59:48;;;;;;;0.50;0.47;;;;;;;17.63;63.30;101177.47;6249151;28;20235;-72
2023/07/04 13:03:16;;;;;;;1.77;0.80;;;;;;;17.09;62.98;101209.84;6252458;28;20228;-68
2023/07/04 13:06:40;;;;;;;2.78;0.75;;;;;;;16.51;67.11;101223.56;6251708;28;20243;-68
2023/07/04 13:10:03;;;;;;;1.75;0.90;;;;;;;16.29;68.85;101240.44;6243634;28;20268;-68
2023/07/04 13:13:35;;;;;;;1.50;0.80;;;;;;;15.78;70.12;101232.38;6253902;28;20348;-68
2023/07/04 13:17:09;;;;;;;1.03;0.80;;;;;;;15.71;69.19;101236.72;6250954;28;20328;-68
2023/07/04 13:20:33;;;;;;;0.77;0.77;;;;;;;15.70;69.54;101238.63;6238654;28;20255;-67
2023/07/04 13:23:53;;;;;;;0.63;0.63;;;;;;;15.45;70.26;101216.88;6250568;28;20302;-67
2023/07/04 13:27:18;;;;;;;0.50;0.50;;;;;;;15.63;70.69;101204.06;6248630;28;20231;-68
2023/07/04 13:30:40;;;;;;;2.80;0.97;;;;;;;16.15;70.28;101191.25;6240619;28;20239;-67
2023/07/04 13:34:12;;;;;;;0.87;0.87;;;;;;;16.71;69.00;101169.63;6252459;28;20224;-69
2023/07/04 13:37:35;;;;;;;0.60;0.50;;;;;;;17.09;68.76;101176.28;6243832;28;20945;-68
2023/07/04 13:40:56;;;;;;;1.07;0.93;;;;;;;17.53;67.89;101147.66;6248581;28;20770;-69
2023/07/04 13:44:17;;;;;;;0.60;0.60;;;;;;;18.22;65.20;101134.06;6235769;28;21065;-68
2023/07/04 13:47:37;;;;;;;2.40;0.82;;;;;;;18.12;65.53;101121.69;6261933;28;20634;-67
2023/07/04 13:50:59;;;;;;;1.17;0.60;;;;;;;18.36;65.26;101135.16;6228893;28;20279;-68
2023/07/04 13:54:22;;;;;;;1.00;0.52;;;;;;;18.27;64.55;101141.72;6246056;28;20624;-68
2023/07/04 13:57:43;;;;;;;1.20;1.10;;;;;;;17.73;65.41;101157.13;6272336;28;20231;-68
2023/07/04 14:01:03;;;;;;;1.08;0.85;;;;;;;17.74;65.37;101156.13;6244068;28;20235;-69
2023/07/04 14:04:24;;;;;;;1.13;1.02;;;;;;;17.88;65.69;101162.69;6244399;28;20239;-69
2023/07/04 14:07:46;;;;;;;2.07;1.87;;;;;;;16.92;65.21;101185.50;6265499;28;20239;-68
2023/07/04 14:11:10;;;;;;;1.90;1.00;;;;;;;17.14;66.54;101202.03;6235901;28;20240;-69
2023/07/04 14:14:31;;;;;;;1.07;1.00;;;;;;;17.20;67.36;101209.50;6244448;28;20311;-68
2023/07/04 14:17:52;;;;;;;4.27;1.40;;;;;;;17.08;68.28;101224.50;6249228;28;20243;-69
2023/07/04 14:21:14;;;;;;;1.50;1.10;;;;;;;16.42;71.72;101237.25;6250917;28;20223;-68
2023/07/04 14:24:35;;;;;;;1.77;1.17;;;;;;;16.05;74.83;101234.03;6230817;28;20231;-68
2023/07/04 14:27:57;;;;;;;1.27;1.17;;;;;;;15.59;76.38;101228.00;6255684;28;20235;-67
2023/07/04 14:31:19;;;;;;;1.97;1.27;;;;;;;15.55;79.41;101237.50;6247235;28;20654;-68
2023/07/04 14:34:39;;;;;;;3.43;1.47;;;;;;;15.23;80.92;101274.41;6241955;28;20223;-68
2023/07/04 14:38:00;;;;;;;4.63;2.50;;;;;;;14.66;83.07;101264.81;6259613;28;20696;-67
2023/07/04 14:41:21;;;;;;;3.33;1.80;;;;;;;14.78;84.40;101245.47;6257358;28;20255;-68
2023/07/04 14:44:44;;;;;;;6.20;2.40;;;;;;;15.16;84.34;101250.56;6254596;28;20318;-67
2023/07/04 14:48:06;;;;;;;3.20;0.90;;;;;;;15.05;84.50;101223.66;6253966;28;20236;-67
2023/07/04 14:51:27;;;;;;;0.73;0.60;;;;;;;14.73;84.98;101208.91;6244697;28;20566;-67
2023/07/04 14:54:48;;;;;;;2.03;1.07;;;;;;;14.68;86.33;101205.81;6256965;28;20506;-68
2023/07/04 14:58:09;;;;;;;1.23;0.80;;;;;;;14.97;86.52;101192.88;6258273;28;20231;-68
2023/07/04 15:01:31;;;;;;;0.90;0.90;;;;;;;15.37;85.91;101157.88;6249299;28;20231;-67
2023/07/04 15:04:52;;;;;;;0.70;0.60;;;;;;;16.07;83.36;101158.56;6250196;28;20269;-67
2023/07/04 15:08:14;;;;;;;6.87;1.83;;;;;;;16.57;81.87;101167.59;6247503;28;20232;-67
2023/07/04 15:11:35;;;;;;;1.27;0.90;;;;;;;16.53;79.69;101171.66;6251615;28;20613;-66
2023/07/04 15:14:56;;;;;;;1.57;1.23;;;;;;;16.52;79.30;101159.09;6236588;28;20235;-67
2023/07/04 15:18:18;;;;;;;1.33;0.73;;;;;;;17.85;77.78;101169.38;6235816;28;20231;-68
2023/07/04 15:21:39;;;;;;;1.75;1.13;;;;;;;17.72;75.55;101163.63;6252975;28;20240;-68
2023/07/04 15:25:00;;;;;;;1.33;1.17;;;;;;;18.70;73.44;101145.72;6247492;28;20299;-68
2023/07/04 15:28:21;;;;;;;3.63;1.60;;;;;;;18.26;73.11;101148.19;6249025;28;20244;-68
2023/07/04 15:31:44;;;;;;;1.48;0.98;;;;;;;18.46;71.91;101154.09;6245365;28;20232;-67
2023/07/04 15:35:07;;;;;;;2.00;1.27;;;;;;;18.02;72.08;101154.63;6212478;28;20228;-68
2023/07/04 15:38:27;;;;;;;1.70;1.60;;;;;;;17.93;72.28;101169.34;6249349;28;20895;-67
2023/07/04 15:41:48;;;;;;;5.57;2.38;;;;;;;18.11;72.59;101152.72;6246027;28;20236;-67
2023/07/04 15:45:10;;;;;;;2.83;1.50;;;;;;;17.75;73.05;101167.88;6248931;28;20232;-68